createdAt,value
2023-04-15T00:00:26.281Z,7.44
2023-04-15T00:01:26.457Z,7.44
2023-04-15T00:02:26.437Z,7.44
2023-04-15T00:03:26.492Z,7.42
2023-04-15T00:04:26.528Z,7.44
2023-04-15T00:05:25.376Z,7.42
2023-04-15T00:06:25.351Z,7.42
2023-04-15T00:07:26.350Z,7.42
2023-04-15T00:08:25.387Z,7.42
2023-04-15T00:09:25.329Z,7.44
2023-04-15T00:10:26.064Z,7.42
2023-04-15T00:11:26.246Z,7.42
2023-04-15T00:12:26.131Z,7.44
2023-04-15T00:13:26.031Z,7.42
2023-04-15T00:14:25.241Z,7.42
2023-04-15T00:15:25.322Z,7.42
2023-04-15T00:16:25.362Z,7.42
2023-04-15T00:17:25.268Z,7.42
2023-04-15T00:18:25.221Z,7.42
2023-04-15T00:19:25.183Z,7.41
2023-04-15T00:20:26.178Z,7.41
2023-04-15T00:21:26.035Z,7.41
2023-04-15T00:22:25.140Z,7.40
2023-04-15T00:23:25.127Z,7.41
2023-04-15T00:24:26.061Z,7.41
2023-04-15T00:25:25.910Z,7.40
2023-04-15T00:26:25.086Z,7.40
2023-04-15T00:27:25.976Z,7.40
2023-04-15T00:28:25.273Z,7.40
2023-04-15T00:29:26.032Z,7.38
2023-04-15T00:30:25.216Z,7.38
2023-04-15T00:31:26.027Z,7.38
2023-04-15T00:32:25.776Z,7.38
2023-04-15T00:33:25.228Z,7.40
2023-04-15T00:34:25.200Z,7.38
2023-04-15T00:35:24.948Z,7.40
2023-04-15T00:36:24.925Z,7.41
2023-04-15T00:37:25.200Z,7.40
2023-04-15T00:38:25.264Z,7.40
2023-04-15T00:39:25.223Z,7.42
2023-04-15T00:40:25.233Z,7.41
2023-04-15T00:41:25.272Z,7.41
2023-04-15T00:42:25.270Z,7.41
2023-04-15T00:43:25.202Z,7.41
2023-04-15T00:44:25.381Z,7.41
2023-04-15T00:45:25.273Z,7.41
2023-04-15T00:46:24.910Z,7.42
2023-04-15T00:47:25.554Z,7.44
2023-04-15T00:48:25.751Z,7.42
2023-04-15T00:49:25.230Z,7.41
2023-04-15T00:50:24.792Z,7.45
2023-04-15T00:51:24.738Z,7.44
2023-04-15T00:52:24.851Z,7.44
2023-04-15T00:53:24.894Z,7.44
2023-04-15T00:54:25.118Z,7.44
2023-04-15T00:55:25.188Z,7.44
2023-04-15T00:56:24.720Z,7.45
2023-04-15T00:57:24.654Z,7.44
2023-04-15T00:58:24.621Z,7.45
2023-04-15T00:59:24.661Z,7.45
2023-04-15T01:00:24.778Z,7.44
2023-04-15T01:01:24.604Z,7.44
2023-04-15T01:02:24.719Z,7.44
2023-04-15T01:03:25.449Z,7.45
2023-04-15T01:04:24.674Z,7.44
2023-04-15T01:05:25.410Z,7.45
2023-04-15T01:06:25.318Z,7.45
2023-04-15T01:07:25.508Z,7.47
2023-04-15T01:08:25.371Z,7.45
2023-04-15T01:09:25.359Z,7.45
2023-04-15T01:10:25.466Z,7.45
2023-04-15T01:11:24.461Z,7.47
2023-04-15T01:12:24.574Z,7.45
2023-04-15T01:13:25.402Z,7.47
2023-04-15T01:14:25.322Z,7.47
2023-04-15T01:15:24.570Z,7.47
2023-04-15T01:16:24.689Z,7.49
2023-04-15T01:17:24.419Z,7.47
2023-04-15T01:18:25.201Z,7.49
2023-04-15T01:19:25.368Z,7.49
2023-04-15T01:20:24.330Z,7.50
2023-04-15T01:21:25.140Z,7.47
2023-04-15T01:22:25.055Z,7.49
2023-04-15T01:23:25.207Z,7.47
2023-04-15T01:24:25.105Z,7.49
2023-04-15T01:25:25.276Z,7.50
2023-04-15T01:26:24.288Z,7.50
2023-04-15T01:27:25.076Z,7.49
2023-04-15T01:28:24.201Z,7.50
2023-04-15T01:29:24.210Z,7.50
2023-04-15T01:30:24.257Z,7.52
2023-04-15T01:31:25.003Z,7.50
2023-04-15T01:32:25.126Z,7.50
2023-04-15T01:33:25.068Z,7.52
2023-04-15T01:34:24.174Z,7.52
2023-04-15T01:35:24.187Z,7.52
2023-04-15T01:36:25.017Z,7.52
2023-04-15T01:37:24.135Z,7.52
2023-04-15T01:38:25.056Z,7.50
2023-04-15T01:39:24.451Z,7.55
2023-04-15T01:40:25.038Z,7.53
2023-04-15T01:41:24.172Z,7.52
2023-04-15T01:42:25.014Z,7.53
2023-04-15T01:43:24.001Z,7.53
2023-04-15T01:44:24.702Z,7.53
2023-04-15T01:45:24.301Z,7.53
2023-04-15T01:46:24.707Z,7.53
2023-04-15T01:47:24.677Z,7.52
2023-04-15T01:48:23.983Z,7.55
2023-04-15T01:49:23.932Z,7.55
2023-04-15T01:50:24.890Z,7.55
2023-04-15T01:51:24.861Z,7.53
2023-04-15T01:52:24.724Z,7.55
2023-04-15T01:53:24.084Z,7.55
2023-04-15T01:54:23.870Z,7.55
2023-04-15T01:55:24.696Z,7.55
2023-04-15T01:56:24.601Z,7.56
2023-04-15T01:57:23.804Z,7.56
2023-04-15T01:58:24.433Z,7.56
2023-04-15T01:59:24.527Z,7.58
2023-04-15T02:00:24.650Z,7.58
2023-04-15T02:01:24.594Z,7.58
2023-04-15T02:02:24.026Z,7.58
2023-04-15T02:03:23.825Z,7.58
2023-04-15T02:04:25.660Z,7.59
2023-04-15T02:05:24.548Z,7.60
2023-04-15T02:06:26.255Z,7.60
2023-04-15T02:07:24.600Z,7.60
2023-04-15T02:08:24.519Z,7.60
2023-04-15T02:09:23.664Z,7.60
2023-04-15T02:10:23.720Z,7.60
2023-04-15T02:11:23.622Z,7.59
2023-04-15T02:12:24.693Z,7.60
2023-04-15T02:13:24.542Z,7.60
2023-04-15T02:14:23.648Z,7.62
2023-04-15T02:15:24.649Z,7.60
2023-04-15T02:16:24.630Z,7.62
2023-04-15T02:17:24.426Z,7.62
2023-04-15T02:18:24.316Z,7.63
2023-04-15T02:19:23.527Z,7.63
2023-04-15T02:20:23.645Z,7.63
2023-04-15T02:21:23.473Z,7.63
2023-04-15T02:22:23.465Z,7.66
2023-04-15T02:23:23.548Z,7.66
2023-04-15T02:24:23.454Z,7.66
2023-04-15T02:25:23.433Z,7.66
2023-04-15T02:26:23.565Z,7.66
2023-04-15T02:27:23.381Z,7.67
2023-04-15T02:28:24.344Z,7.67
2023-04-15T02:29:24.247Z,7.69
2023-04-15T02:30:23.372Z,7.69
2023-04-15T02:31:24.360Z,7.67
2023-04-15T02:32:23.389Z,7.69
2023-04-15T02:33:24.130Z,7.71
2023-04-15T02:34:23.332Z,7.72
2023-04-15T02:35:23.335Z,7.71
2023-04-15T02:36:23.293Z,7.71
2023-04-15T02:37:23.310Z,7.71
2023-04-15T02:38:23.234Z,7.72
2023-04-15T02:39:24.057Z,7.72
2023-04-15T02:40:24.010Z,7.72
2023-04-15T02:41:24.124Z,7.74
2023-04-15T02:42:23.275Z,7.74
2023-04-15T02:43:23.244Z,7.72
2023-04-15T02:44:23.357Z,7.74
2023-04-15T02:45:23.186Z,7.74
2023-04-15T02:46:23.324Z,7.75
2023-04-15T02:47:24.110Z,7.75
2023-04-15T02:48:23.100Z,7.77
2023-04-15T02:49:23.097Z,7.75
2023-04-15T02:50:24.029Z,7.75
2023-04-15T02:51:23.926Z,7.77
2023-04-15T02:52:23.862Z,7.77
2023-04-15T02:53:24.002Z,7.77
2023-04-15T02:54:23.907Z,7.78
2023-04-15T02:55:23.001Z,7.77
2023-04-15T02:56:23.129Z,7.77
2023-04-15T02:57:23.914Z,7.79
2023-04-15T02:58:23.008Z,7.78
2023-04-15T02:59:23.927Z,7.78
2023-04-15T03:00:23.862Z,7.79
2023-04-15T03:01:23.767Z,7.79
2023-04-15T03:02:23.974Z,7.81
2023-04-15T03:03:23.907Z,7.81
2023-04-15T03:04:22.936Z,7.81
2023-04-15T03:05:23.345Z,7.81
2023-04-15T03:06:23.830Z,7.82
2023-04-15T03:07:22.904Z,7.82
2023-04-15T03:08:23.836Z,7.81
2023-04-15T03:09:23.772Z,7.82
2023-04-15T03:10:23.641Z,7.82
2023-04-15T03:11:23.261Z,7.84
2023-04-15T03:12:22.756Z,7.82
2023-04-15T03:13:23.292Z,7.84
2023-04-15T03:14:23.298Z,7.84
2023-04-15T03:15:23.682Z,7.85
2023-04-15T03:16:23.581Z,7.87
2023-04-15T03:17:22.751Z,7.87
2023-04-15T03:18:23.642Z,7.85
2023-04-15T03:19:23.548Z,7.85
2023-04-15T03:20:23.525Z,7.87
2023-04-15T03:21:23.628Z,7.87
2023-04-15T03:22:23.521Z,7.87
2023-04-15T03:23:22.645Z,7.87
2023-04-15T03:24:23.055Z,7.89
2023-04-15T03:25:23.517Z,7.89
2023-04-15T03:26:23.383Z,7.87
2023-04-15T03:27:22.583Z,7.89
2023-04-15T03:28:22.539Z,7.89
2023-04-15T03:29:22.573Z,7.87
2023-04-15T03:30:23.254Z,7.90
2023-04-15T03:31:22.563Z,7.89
2023-04-15T03:32:23.357Z,7.89
2023-04-15T03:33:23.389Z,7.89
2023-04-15T03:34:23.387Z,7.90
2023-04-15T03:35:23.350Z,7.90
2023-04-15T03:36:23.204Z,7.89
2023-04-15T03:37:23.331Z,7.89
2023-04-15T03:38:23.286Z,7.90
2023-04-15T03:39:22.654Z,7.90
2023-04-15T03:40:22.416Z,7.90
2023-04-15T03:41:22.413Z,7.90
2023-04-15T03:42:22.450Z,7.90
2023-04-15T03:43:22.431Z,7.92
2023-04-15T03:44:22.354Z,7.90
2023-04-15T03:45:22.353Z,7.92
2023-04-15T03:46:22.331Z,7.92
2023-04-15T03:47:22.475Z,7.92
2023-04-15T03:48:23.120Z,7.90
2023-04-15T03:49:23.252Z,7.92
2023-04-15T03:50:22.531Z,7.90
2023-04-15T03:51:22.315Z,7.93
2023-04-15T03:52:23.262Z,7.92
2023-04-15T03:53:22.184Z,7.92
2023-04-15T03:54:22.447Z,7.93
2023-04-15T03:55:22.179Z,7.93
2023-04-15T03:56:22.231Z,7.92
2023-04-15T03:57:22.169Z,7.92
2023-04-15T03:58:22.142Z,7.93
2023-04-15T03:59:22.112Z,7.92
2023-04-15T04:00:22.140Z,7.92
2023-04-15T04:01:22.332Z,7.96
2023-04-15T04:02:22.205Z,7.93
2023-04-15T04:03:22.688Z,7.93
2023-04-15T04:04:22.899Z,7.93
2023-04-15T04:05:22.027Z,7.94
2023-04-15T04:06:22.112Z,7.93
2023-04-15T04:07:22.220Z,7.94
2023-04-15T04:08:22.118Z,7.94
2023-04-15T04:09:22.388Z,7.94
2023-04-15T04:10:21.992Z,7.94
2023-04-15T04:11:21.990Z,7.96
2023-04-15T04:12:22.094Z,7.94
2023-04-15T04:13:22.364Z,7.94
2023-04-15T04:14:22.339Z,7.93
2023-04-15T04:15:22.464Z,7.94
2023-04-15T04:16:21.992Z,7.96
2023-04-15T04:17:21.978Z,7.96
2023-04-15T04:18:22.044Z,7.94
2023-04-15T04:19:21.910Z,7.96
2023-04-15T04:20:21.888Z,7.96
2023-04-15T04:21:22.118Z,7.97
2023-04-15T04:22:21.897Z,7.97
2023-04-15T04:23:21.802Z,7.97
2023-04-15T04:24:21.860Z,7.97
2023-04-15T04:25:21.870Z,7.97
2023-04-15T04:26:21.862Z,7.99
2023-04-15T04:27:21.713Z,8.00
2023-04-15T04:28:21.763Z,7.99
2023-04-15T04:29:21.776Z,8.00
2023-04-15T04:30:21.684Z,8.00
2023-04-15T04:31:21.721Z,8.00
2023-04-15T04:32:21.678Z,8.02
2023-04-15T04:33:21.702Z,8.02
2023-04-15T04:34:21.625Z,8.02
2023-04-15T04:35:22.398Z,8.02
2023-04-15T04:36:21.616Z,8.03
2023-04-15T04:37:21.745Z,8.04
2023-04-15T04:38:21.769Z,8.04
2023-04-15T04:39:21.712Z,8.04
2023-04-15T04:40:21.519Z,8.04
2023-04-15T04:41:21.751Z,8.04
2023-04-15T04:42:21.566Z,8.04
2023-04-15T04:43:21.690Z,8.07
2023-04-15T04:44:21.771Z,8.08
2023-04-15T04:45:21.745Z,8.07
2023-04-15T04:46:21.521Z,8.08
2023-04-15T04:47:21.514Z,8.08
2023-04-15T04:48:22.423Z,8.10
2023-04-15T04:49:22.343Z,8.08
2023-04-15T04:50:21.465Z,8.10
2023-04-15T04:51:22.459Z,8.11
2023-04-15T04:52:22.309Z,8.10
2023-04-15T04:53:22.241Z,8.11
2023-04-15T04:54:22.125Z,8.12
2023-04-15T04:55:22.355Z,8.12
2023-04-15T04:56:21.431Z,8.11
2023-04-15T04:57:21.804Z,8.12
2023-04-15T04:58:21.410Z,8.14
2023-04-15T04:59:22.210Z,8.15
2023-04-15T05:00:22.049Z,8.15
2023-04-15T05:01:22.335Z,8.15
2023-04-15T05:02:22.218Z,8.15
2023-04-15T05:03:21.414Z,8.17
2023-04-15T05:04:21.249Z,8.17
2023-04-15T05:05:21.272Z,8.17
2023-04-15T05:06:21.245Z,8.15
2023-04-15T05:07:21.206Z,8.18
2023-04-15T05:08:21.183Z,8.18
2023-04-15T05:09:21.214Z,8.20
2023-04-15T05:10:21.122Z,8.18
2023-04-15T05:11:22.024Z,8.20
2023-04-15T05:12:21.143Z,8.21
2023-04-15T05:13:21.258Z,8.20
2023-04-15T05:14:23.331Z,8.21
2023-04-15T05:15:21.080Z,8.22
2023-04-15T05:16:22.090Z,8.25
2023-04-15T05:17:21.103Z,8.26
2023-04-15T05:18:21.875Z,8.25
2023-04-15T05:19:21.003Z,8.26
2023-04-15T05:20:29.979Z,8.28
2023-04-15T05:21:21.824Z,8.29
2023-04-15T05:22:20.973Z,8.30
2023-04-15T05:23:21.082Z,8.30
2023-04-15T05:24:21.471Z,8.29
2023-04-15T05:25:20.983Z,8.32
2023-04-15T05:26:23.620Z,8.32
2023-04-15T05:27:21.149Z,8.33
2023-04-15T05:28:22.363Z,8.33
2023-04-15T05:29:20.859Z,8.35
2023-04-15T05:30:21.064Z,8.37
2023-04-15T05:31:21.549Z,8.35
2023-04-15T05:32:21.697Z,8.35
2023-04-15T05:33:22.214Z,8.35
2023-04-15T05:34:21.056Z,8.36
2023-04-15T05:35:20.776Z,8.36
2023-04-15T05:36:20.895Z,8.36
2023-04-15T05:37:21.226Z,8.36
2023-04-15T05:38:21.156Z,8.35
2023-04-15T05:39:21.282Z,8.36
2023-04-15T05:40:20.808Z,8.36
2023-04-15T05:41:20.721Z,8.36
2023-04-15T05:42:21.154Z,8.36
2023-04-15T05:43:21.055Z,8.37
2023-04-15T05:44:21.744Z,8.36
2023-04-15T05:45:20.825Z,8.37
2023-04-15T05:46:21.595Z,8.37
2023-04-15T05:47:20.841Z,8.39
2023-04-15T05:48:48.974Z,8.40
2023-04-15T05:49:21.192Z,8.39
2023-04-15T05:50:20.684Z,8.39
2023-04-15T05:51:20.664Z,8.40
2023-04-15T05:52:21.550Z,8.39
2023-04-15T05:53:21.061Z,8.40
2023-04-15T05:54:22.858Z,8.44
2023-04-15T05:55:21.351Z,8.42
2023-04-15T05:56:20.731Z,8.44
2023-04-15T05:57:20.732Z,8.45
2023-04-15T05:58:20.570Z,8.45
2023-04-15T05:59:20.666Z,8.47
2023-04-15T06:00:21.047Z,8.45
2023-04-15T06:01:21.508Z,8.48
2023-04-15T06:02:20.700Z,8.47
2023-04-15T06:03:21.560Z,8.48
2023-04-15T06:04:20.513Z,8.50
2023-04-15T06:05:20.606Z,8.47
2023-04-15T06:06:20.989Z,8.51
2023-04-15T06:07:20.435Z,8.53
2023-04-15T06:08:20.725Z,8.57
2023-04-15T06:09:21.087Z,8.57
2023-04-15T06:10:20.452Z,8.57
2023-04-15T06:11:20.396Z,8.58
2023-04-15T06:12:20.586Z,8.58
2023-04-15T06:13:20.696Z,8.55
2023-04-15T06:14:21.152Z,8.57
2023-04-15T06:15:21.728Z,8.57
2023-04-15T06:16:20.371Z,8.57
2023-04-15T06:17:20.690Z,8.55
2023-04-15T06:18:20.294Z,8.57
2023-04-15T06:19:20.437Z,8.58
2023-04-15T06:20:20.388Z,8.58
2023-04-15T06:21:21.929Z,8.58
2023-04-15T06:22:21.102Z,8.55
2023-04-15T06:23:20.992Z,8.57
2023-04-15T06:24:20.138Z,8.57
2023-04-15T06:25:21.123Z,8.60
2023-04-15T06:26:20.966Z,8.66
2023-04-15T06:27:20.096Z,8.68
2023-04-15T06:28:21.030Z,8.71
2023-04-15T06:29:20.045Z,8.72
2023-04-15T06:30:20.612Z,8.75
2023-04-15T06:31:21.011Z,8.75
2023-04-15T06:32:20.887Z,8.73
2023-04-15T06:33:19.993Z,8.76
2023-04-15T06:34:21.028Z,8.78
2023-04-15T06:35:19.983Z,8.78
2023-04-15T06:36:19.940Z,8.79
2023-04-15T06:37:19.908Z,8.79
2023-04-15T06:38:19.915Z,8.78
2023-04-15T06:39:20.754Z,8.78
2023-04-15T06:40:20.882Z,8.73
2023-04-15T06:41:19.916Z,8.76
2023-04-15T06:42:19.922Z,8.78
2023-04-15T06:43:20.328Z,8.79
2023-04-15T06:44:20.754Z,8.79
2023-04-15T06:45:20.661Z,8.84
2023-04-15T06:46:20.514Z,8.87
2023-04-15T06:47:20.743Z,8.88
2023-04-15T06:48:19.781Z,8.88
2023-04-15T06:49:19.784Z,8.87
2023-04-15T06:50:20.275Z,8.87
2023-04-15T06:51:19.851Z,8.84
2023-04-15T06:52:20.038Z,8.81
2023-04-15T06:53:20.123Z,8.78
2023-04-15T06:54:20.565Z,8.78
2023-04-15T06:55:19.725Z,8.76
2023-04-15T06:56:19.710Z,8.76
2023-04-15T06:57:20.529Z,8.75
2023-04-15T06:58:19.725Z,8.75
2023-04-15T06:59:20.334Z,8.76
2023-04-15T07:00:20.274Z,8.81
2023-04-15T07:01:20.327Z,8.84
2023-04-15T07:02:19.664Z,8.84
2023-04-15T07:03:19.700Z,8.83
2023-04-15T07:04:19.966Z,8.83
2023-04-15T07:05:19.531Z,8.83
2023-04-15T07:06:20.466Z,8.78
2023-04-15T07:07:19.508Z,8.75
2023-04-15T07:08:19.521Z,8.75
2023-04-15T07:09:19.510Z,8.78
2023-04-15T07:10:20.274Z,8.78
2023-04-15T07:11:19.464Z,8.75
2023-04-15T07:12:20.367Z,8.75
2023-04-15T07:13:19.461Z,8.78
2023-04-15T07:14:19.460Z,8.81
2023-04-15T07:15:19.524Z,8.86
2023-04-15T07:16:19.491Z,8.88
2023-04-15T07:17:19.438Z,8.88
2023-04-15T07:18:20.311Z,8.87
2023-04-15T07:19:19.383Z,8.88
2023-04-15T07:20:19.433Z,8.87
2023-04-15T07:21:19.351Z,8.84
2023-04-15T07:22:19.392Z,8.83
2023-04-15T07:23:19.687Z,8.83
2023-04-15T07:24:19.556Z,8.86
2023-04-15T07:25:19.301Z,8.84
2023-04-15T07:26:19.324Z,8.86
2023-04-15T07:27:19.831Z,8.90
2023-04-15T07:28:19.268Z,8.93
2023-04-15T07:29:19.272Z,8.94
2023-04-15T07:30:19.600Z,8.97
2023-04-15T07:31:20.116Z,8.94
2023-04-15T07:32:19.700Z,8.91
2023-04-15T07:33:19.341Z,8.88
2023-04-15T07:34:19.497Z,8.87
2023-04-15T07:35:19.421Z,8.90
2023-04-15T07:36:20.031Z,8.90
2023-04-15T07:37:19.134Z,8.96
2023-04-15T07:38:19.116Z,8.94
2023-04-15T07:39:19.829Z,8.96
2023-04-15T07:40:19.064Z,8.99
2023-04-15T07:41:19.065Z,9.04
2023-04-15T07:42:19.878Z,9.05
2023-04-15T07:43:19.048Z,9.06
2023-04-15T07:44:19.050Z,9.05
2023-04-15T07:45:19.016Z,9.09
2023-04-15T07:46:19.068Z,9.10
2023-04-15T07:47:19.034Z,9.12
2023-04-15T07:48:19.023Z,9.20
2023-04-15T07:49:19.132Z,9.20
2023-04-15T07:50:18.931Z,9.23
2023-04-15T07:51:19.098Z,9.27
2023-04-15T07:52:18.936Z,9.34
2023-04-15T07:53:18.914Z,9.40
2023-04-15T07:54:18.863Z,9.38
2023-04-15T07:55:19.478Z,9.34
2023-04-15T07:56:18.873Z,9.39
2023-04-15T07:57:18.844Z,9.34
2023-04-15T07:58:18.866Z,9.34
2023-04-15T07:59:18.879Z,9.40
2023-04-15T08:00:18.878Z,9.48
2023-04-15T08:01:18.811Z,9.53
2023-04-15T08:02:18.897Z,9.52
2023-04-15T08:03:18.919Z,9.52
2023-04-15T08:04:19.007Z,9.52
2023-04-15T08:05:19.228Z,9.46
2023-04-15T08:06:18.891Z,9.46
2023-04-15T08:07:18.777Z,9.50
2023-04-15T08:08:18.715Z,9.52
2023-04-15T08:09:18.699Z,9.46
2023-04-15T08:10:18.649Z,9.39
2023-04-15T08:11:18.717Z,9.38
2023-04-15T08:12:18.625Z,9.39
2023-04-15T08:13:18.612Z,9.39
2023-04-15T08:14:18.755Z,9.34
2023-04-15T08:15:18.881Z,9.32
2023-04-15T08:16:18.707Z,9.34
2023-04-15T08:17:18.843Z,9.32
2023-04-15T08:18:18.650Z,9.32
2023-04-15T08:19:19.179Z,9.32
2023-04-15T08:20:18.506Z,9.32
2023-04-15T08:21:18.858Z,9.34
2023-04-15T08:22:19.614Z,9.38
2023-04-15T08:23:18.941Z,9.39
2023-04-15T08:24:19.345Z,9.39
2023-04-15T08:25:18.588Z,9.45
2023-04-15T08:26:18.850Z,9.50
2023-04-15T08:27:18.468Z,9.50
2023-04-15T08:28:18.491Z,9.49
2023-04-15T08:29:19.184Z,9.49
2023-04-15T08:30:19.327Z,9.49
2023-04-15T08:31:19.222Z,9.49
2023-04-15T08:32:19.147Z,9.50
2023-04-15T08:33:18.321Z,9.52
2023-04-15T08:34:18.356Z,9.57
2023-04-15T08:35:19.060Z,9.64
2023-04-15T08:36:18.258Z,9.71
2023-04-15T08:37:18.530Z,9.79
2023-04-15T08:38:18.334Z,9.85
2023-04-15T08:39:18.280Z,9.82
2023-04-15T08:40:19.121Z,9.81
2023-04-15T08:41:18.551Z,9.79
2023-04-15T08:42:18.199Z,9.82
2023-04-15T08:43:18.884Z,9.85
2023-04-15T08:44:18.508Z,9.82
2023-04-15T08:45:19.135Z,9.86
2023-04-15T08:46:18.221Z,9.94
2023-04-15T08:47:18.174Z,10.00
2023-04-15T08:48:19.095Z,10.03
2023-04-15T08:49:18.518Z,10.00
2023-04-15T08:50:18.164Z,9.97
2023-04-15T08:51:18.183Z,10.00
2023-04-15T08:52:18.173Z,10.06
2023-04-15T08:53:18.871Z,10.14
2023-04-15T08:54:18.069Z,10.21
2023-04-15T08:55:18.949Z,10.30
2023-04-15T08:56:18.892Z,10.34
2023-04-15T08:57:18.219Z,10.37
2023-04-15T08:58:17.992Z,10.34
2023-04-15T08:59:18.295Z,10.39
2023-04-15T09:00:18.739Z,10.39
2023-04-15T09:01:18.924Z,10.47
2023-04-15T09:02:18.993Z,10.55
2023-04-15T09:03:18.138Z,10.65
2023-04-15T09:04:18.896Z,10.73
2023-04-15T09:05:17.989Z,10.76
2023-04-15T09:06:17.950Z,10.83
2023-04-15T09:07:17.883Z,10.88
2023-04-15T09:08:17.908Z,10.91
2023-04-15T09:09:17.879Z,10.95
2023-04-15T09:10:18.247Z,10.98
2023-04-15T09:11:19.432Z,10.96
2023-04-15T09:12:18.594Z,10.95
2023-04-15T09:13:18.037Z,10.99
2023-04-15T09:14:18.687Z,11.03
2023-04-15T09:15:17.896Z,11.11
2023-04-15T09:16:17.977Z,11.11
2023-04-15T09:17:17.759Z,11.13
2023-04-15T09:18:17.941Z,11.13
2023-04-15T09:19:17.714Z,11.10
2023-04-15T09:20:17.870Z,11.03
2023-04-15T09:21:18.534Z,11.03
2023-04-15T09:22:17.937Z,11.09
2023-04-15T09:23:17.620Z,11.06
2023-04-15T09:24:17.890Z,10.98
2023-04-15T09:25:17.932Z,10.98
2023-04-15T09:26:17.680Z,11.02
2023-04-15T09:27:18.270Z,11.19
2023-04-15T09:28:17.661Z,11.38
2023-04-15T09:29:17.611Z,11.71
2023-04-15T09:30:17.806Z,11.99
2023-04-15T09:31:17.569Z,12.15
2023-04-15T09:32:17.576Z,12.41
2023-04-15T09:33:17.675Z,12.69
2023-04-15T09:34:17.534Z,12.81
2023-04-15T09:35:17.488Z,12.89
2023-04-15T09:36:17.487Z,12.88
2023-04-15T09:37:31.507Z,12.96
2023-04-15T09:38:18.480Z,12.89
2023-04-15T09:39:18.342Z,12.66
2023-04-15T09:40:17.594Z,12.56
2023-04-15T09:41:17.563Z,12.57
2023-04-15T09:42:17.356Z,12.51
2023-04-15T09:43:17.460Z,12.56
2023-04-15T09:44:17.460Z,12.70
2023-04-15T09:45:17.404Z,12.89
2023-04-15T09:46:18.196Z,13.12
2023-04-15T09:47:17.382Z,13.32
2023-04-15T09:48:17.411Z,13.61
2023-04-15T09:49:17.286Z,13.63
2023-04-15T09:50:17.208Z,13.65
2023-04-15T09:51:17.617Z,13.91
2023-04-15T09:52:17.415Z,14.10
2023-04-15T09:53:17.237Z,14.64
2023-04-15T09:54:17.202Z,15.12
2023-04-15T09:55:17.224Z,15.27
2023-04-15T09:56:17.202Z,15.31
2023-04-15T09:57:17.146Z,15.49
2023-04-15T09:58:17.170Z,15.31
2023-04-15T09:59:17.339Z,15.15
2023-04-15T10:00:17.085Z,15.19
2023-04-15T10:01:17.165Z,15.23
2023-04-15T10:02:17.138Z,15.49
2023-04-15T10:03:17.188Z,15.46
2023-04-15T10:04:17.231Z,15.11
2023-04-15T10:05:17.078Z,14.87
2023-04-15T10:06:17.191Z,14.46
2023-04-15T10:07:17.098Z,14.24
2023-04-15T10:08:17.856Z,14.42
2023-04-15T10:09:17.408Z,14.80
2023-04-15T10:10:17.084Z,15.12
2023-04-15T10:11:17.027Z,15.19
2023-04-15T10:12:17.004Z,15.08
2023-04-15T10:13:16.926Z,15.24
2023-04-15T10:14:16.952Z,15.30
2023-04-15T10:15:16.880Z,15.30
2023-04-15T10:16:17.332Z,15.28
2023-04-15T10:17:17.045Z,15.26
2023-04-15T10:18:17.136Z,15.31
2023-04-15T10:19:16.809Z,15.20
2023-04-15T10:20:16.909Z,15.08
2023-04-15T10:21:16.934Z,14.94
2023-04-15T10:22:16.807Z,14.83
2023-04-15T10:23:16.937Z,14.65
2023-04-15T10:24:18.098Z,14.50
2023-04-15T10:25:16.828Z,14.57
2023-04-15T10:26:16.804Z,14.69
2023-04-15T10:27:16.751Z,14.57
2023-04-15T10:28:17.502Z,14.57
2023-04-15T10:29:16.691Z,14.72
2023-04-15T10:30:16.994Z,14.64
2023-04-15T10:31:16.938Z,15.03
2023-04-15T10:32:17.652Z,15.75
2023-04-15T10:33:16.770Z,15.96
2023-04-15T10:34:17.148Z,15.92
2023-04-15T10:35:16.686Z,15.82
2023-04-15T10:36:16.677Z,15.81
2023-04-15T10:37:17.156Z,15.86
2023-04-15T10:38:17.654Z,15.86
2023-04-15T10:39:16.670Z,15.81
2023-04-15T10:40:17.685Z,15.84
2023-04-15T10:41:18.036Z,15.64
2023-04-15T10:42:16.781Z,15.59
2023-04-15T10:43:17.925Z,15.45
2023-04-15T10:44:18.675Z,15.35
2023-04-15T10:45:16.533Z,15.19
2023-04-15T10:46:16.938Z,15.11
2023-04-15T10:47:16.431Z,15.06
2023-04-15T10:48:16.545Z,15.02
2023-04-15T10:49:16.967Z,14.87
2023-04-15T10:50:16.656Z,14.62
2023-04-15T10:51:16.719Z,14.43
2023-04-15T10:52:16.436Z,14.28
2023-04-15T10:53:16.497Z,14.07
2023-04-15T10:54:16.719Z,13.87
2023-04-15T10:55:16.612Z,13.74
2023-04-15T10:56:17.267Z,13.71
2023-04-15T10:57:17.107Z,13.70
2023-04-15T10:58:19.020Z,13.65
2023-04-15T10:59:16.491Z,13.62
2023-04-15T11:00:16.924Z,13.58
2023-04-15T11:01:16.240Z,13.62
2023-04-15T11:02:19.656Z,13.70
2023-04-15T11:03:16.912Z,13.74
2023-04-15T11:04:17.557Z,13.81
2023-04-15T11:05:16.346Z,13.92
2023-04-15T11:06:16.244Z,14.07
2023-04-15T11:07:16.339Z,14.17
2023-04-15T11:08:16.662Z,14.44
2023-04-15T11:09:16.597Z,14.90
2023-04-15T11:10:16.370Z,15.12
2023-04-15T11:11:16.162Z,15.28
2023-04-15T11:12:25.991Z,15.45
2023-04-15T11:13:17.487Z,15.52
2023-04-15T11:14:17.349Z,15.59
2023-04-15T11:15:16.047Z,15.63
2023-04-15T11:16:16.581Z,15.74
2023-04-15T11:17:16.850Z,15.74
2023-04-15T11:18:16.064Z,15.63
2023-04-15T11:19:48.772Z,15.66
2023-04-15T11:20:17.039Z,15.74
2023-04-15T11:21:16.052Z,15.76
2023-04-15T11:22:15.943Z,15.74
2023-04-15T11:23:16.209Z,15.54
2023-04-15T11:24:15.933Z,15.42
2023-04-15T11:25:16.235Z,15.30
2023-04-15T11:26:17.340Z,15.13
2023-04-15T11:27:15.849Z,14.71
2023-04-15T11:28:16.400Z,14.64
2023-04-15T11:29:15.926Z,14.84
2023-04-15T11:30:25.250Z,14.99
2023-04-15T11:31:15.904Z,15.02
2023-04-15T11:32:16.183Z,14.99
2023-04-15T11:33:16.077Z,15.01
2023-04-15T11:34:18.581Z,15.01
2023-04-15T11:35:17.597Z,14.95
2023-04-15T11:36:15.767Z,15.01
2023-04-15T11:38:27.631Z,14.95
2023-04-15T11:39:29.740Z,14.93
2023-04-15T11:40:27.934Z,14.86
2023-04-15T11:41:27.302Z,14.84
2023-04-15T11:42:36.210Z,14.86
2023-04-15T11:43:28.882Z,14.84
2023-04-15T11:44:27.565Z,14.68
2023-04-15T11:45:27.974Z,14.54
2023-04-15T11:46:27.464Z,14.39
2023-04-15T11:47:27.703Z,14.39
2023-04-15T11:48:27.941Z,14.38
2023-04-15T11:49:28.044Z,14.35
2023-04-15T11:50:27.512Z,14.42
2023-04-15T11:51:27.122Z,14.56
2023-04-15T11:52:27.119Z,14.57
2023-04-15T11:53:27.060Z,14.72
2023-04-15T11:54:27.069Z,14.88
2023-04-15T11:55:28.309Z,15.01
2023-04-15T11:56:27.022Z,15.03
2023-04-15T11:57:27.864Z,15.09
2023-04-15T11:58:27.475Z,15.05
2023-04-15T11:59:38.940Z,15.02
2023-04-15T12:00:28.708Z,14.91
2023-04-15T12:01:27.493Z,14.84
2023-04-15T12:02:27.024Z,14.83
2023-04-15T12:03:27.278Z,14.84
2023-04-15T12:04:27.014Z,14.87
2023-04-15T12:05:27.813Z,14.90
2023-04-15T12:06:27.092Z,14.80
2023-04-15T12:07:29.321Z,14.72
2023-04-15T12:08:27.261Z,14.75
2023-04-15T12:09:27.862Z,14.72
2023-04-15T12:10:28.311Z,14.72
2023-04-15T12:11:29.334Z,14.78
2023-04-15T12:12:27.032Z,14.88
2023-04-15T12:13:26.875Z,14.93
2023-04-15T12:14:26.892Z,14.95
2023-04-15T12:15:27.677Z,14.98
2023-04-15T12:16:26.917Z,15.05
2023-04-15T12:17:26.848Z,15.09
2023-04-15T12:18:27.230Z,15.19
2023-04-15T12:19:26.713Z,15.19
2023-04-15T12:20:27.664Z,15.13
2023-04-15T12:21:27.152Z,15.11
2023-04-15T12:22:27.146Z,15.09
2023-04-15T12:23:31.017Z,15.08
2023-04-15T12:24:27.670Z,15.17
2023-04-15T12:25:26.592Z,15.08
2023-04-15T12:26:26.621Z,15.06
2023-04-15T12:27:34.252Z,15.03
2023-04-15T12:28:26.588Z,15.02
2023-04-15T12:29:27.403Z,15.06
2023-04-15T12:30:26.656Z,15.09
2023-04-15T12:31:26.626Z,15.23
2023-04-15T12:32:26.538Z,15.35
2023-04-15T12:33:27.483Z,15.41
2023-04-15T12:34:27.451Z,15.38
2023-04-15T12:35:26.528Z,15.42
2023-04-15T12:36:27.715Z,15.41
2023-04-15T12:37:27.909Z,15.41
2023-04-15T12:38:27.269Z,15.21
2023-04-15T12:39:28.590Z,15.06
2023-04-15T12:40:26.770Z,14.99
2023-04-15T12:41:26.386Z,14.99
2023-04-15T12:42:26.423Z,14.98
2023-04-15T12:43:26.704Z,14.87
2023-04-15T12:44:26.358Z,14.83
2023-04-15T12:45:27.877Z,14.87
2023-04-15T12:46:27.082Z,14.80
2023-04-15T12:47:26.344Z,14.80
2023-04-15T12:48:26.599Z,14.86
2023-04-15T12:49:27.122Z,14.84
2023-04-15T12:50:26.791Z,14.83
2023-04-15T12:51:26.338Z,14.81
2023-04-15T12:52:26.308Z,14.87
2023-04-15T12:53:26.235Z,14.86
2023-04-15T12:54:26.186Z,14.87
2023-04-15T12:55:26.541Z,14.86
2023-04-15T12:56:26.769Z,14.90
2023-04-15T12:57:26.192Z,14.94
2023-04-15T12:58:26.280Z,14.93
2023-04-15T12:59:27.763Z,14.86
2023-04-15T13:00:26.669Z,14.83
2023-04-15T13:01:26.254Z,14.75
2023-04-15T13:02:28.551Z,14.74
2023-04-15T13:03:26.293Z,14.72
2023-04-15T13:04:26.141Z,14.78
2023-04-15T13:05:28.806Z,14.83
2023-04-15T13:06:28.070Z,14.88
2023-04-15T13:07:26.021Z,14.94
2023-04-15T13:08:26.468Z,14.91
2023-04-15T13:09:26.306Z,14.87
2023-04-15T13:10:26.192Z,14.93